createdAt,value
2018-06-21T00:00:52.195Z,0.00
2018-06-21T00:01:52.208Z,0.00
2018-06-21T00:02:52.184Z,0.00
2018-06-21T00:03:52.197Z,0.00
2018-06-21T00:04:52.152Z,0.00
2018-06-21T00:05:52.170Z,0.00
2018-06-21T00:06:52.155Z,0.00
2018-06-21T00:07:52.110Z,0.00
2018-06-21T00:08:52.074Z,0.00
2018-06-21T00:09:52.058Z,0.00
2018-06-21T00:10:52.055Z,0.00
2018-06-21T00:11:52.021Z,0.00
2018-06-21T00:12:52.063Z,0.00
2018-06-21T00:13:52.034Z,0.00
2018-06-21T00:14:52.013Z,0.00
2018-06-21T00:15:52.053Z,0.00
2018-06-21T00:16:51.973Z,0.00
2018-06-21T00:17:51.954Z,0.00
2018-06-21T00:18:51.909Z,0.00
2018-06-21T00:19:51.911Z,0.00
2018-06-21T00:20:51.920Z,0.00
2018-06-21T00:21:51.870Z,0.00
2018-06-21T00:22:51.939Z,0.00
2018-06-21T00:23:51.849Z,0.00
2018-06-21T00:24:51.831Z,0.00
2018-06-21T00:25:51.831Z,0.00
2018-06-21T00:26:51.792Z,0.00
2018-06-21T00:27:51.832Z,0.00
2018-06-21T00:28:51.765Z,0.00
2018-06-21T00:29:51.761Z,0.00
2018-06-21T00:30:51.738Z,0.00
2018-06-21T00:31:51.730Z,0.00
2018-06-21T00:32:51.710Z,0.00
2018-06-21T00:33:51.672Z,0.00
2018-06-21T00:34:51.714Z,0.00
2018-06-21T00:35:51.676Z,0.00
2018-06-21T00:36:51.624Z,0.00
2018-06-21T00:37:51.601Z,0.00
2018-06-21T00:38:51.604Z,0.00
2018-06-21T00:39:51.616Z,0.00
2018-06-21T00:40:51.579Z,0.00
2018-06-21T00:41:51.557Z,0.00
2018-06-21T00:42:51.536Z,0.00
2018-06-21T00:43:51.519Z,0.00
2018-06-21T00:44:51.495Z,0.00
2018-06-21T00:45:51.580Z,0.00
2018-06-21T00:46:51.544Z,0.00
2018-06-21T00:47:51.466Z,0.00
2018-06-21T00:48:51.448Z,0.00
2018-06-21T00:49:51.474Z,0.00
2018-06-21T00:50:51.422Z,0.00
2018-06-21T00:51:51.394Z,0.00
2018-06-21T00:52:51.366Z,0.00
2018-06-21T00:53:51.376Z,0.00
2018-06-21T00:54:51.355Z,0.00
2018-06-21T00:55:51.330Z,0.00
2018-06-21T00:56:51.306Z,0.00
2018-06-21T00:57:51.356Z,0.00
2018-06-21T00:58:51.289Z,0.00
2018-06-21T00:59:51.261Z,0.00
2018-06-21T01:00:51.246Z,0.00
2018-06-21T01:01:51.228Z,0.00
2018-06-21T01:02:51.242Z,0.00
2018-06-21T01:03:51.185Z,0.00
2018-06-21T01:04:51.168Z,0.00
2018-06-21T01:05:51.234Z,0.00
2018-06-21T01:06:51.136Z,0.00
2018-06-21T01:07:51.211Z,0.00
2018-06-21T01:08:51.127Z,0.00
2018-06-21T01:09:51.116Z,0.00
2018-06-21T01:10:51.089Z,0.00
2018-06-21T01:11:51.064Z,0.00
2018-06-21T01:12:51.040Z,0.00
2018-06-21T01:13:51.043Z,0.00
2018-06-21T01:14:51.017Z,0.00
2018-06-21T01:17:23.236Z,0.00
2018-06-21T01:18:13.322Z,0.00
2018-06-21T01:19:13.070Z,0.00
2018-06-21T01:20:13.195Z,0.00
2018-06-21T01:22:47.417Z,0.00
2018-06-21T01:23:38.387Z,0.00
2018-06-21T01:26:11.120Z,0.00
2018-06-21T01:28:34.176Z,0.00
2018-06-21T01:30:57.779Z,0.00
2018-06-21T01:31:46.972Z,0.00
2018-06-21T01:32:46.934Z,0.00
2018-06-21T01:33:46.990Z,0.00
2018-06-21T01:34:47.022Z,0.00
2018-06-21T01:35:46.884Z,0.00
2018-06-21T01:36:46.904Z,0.00
2018-06-21T01:37:46.879Z,0.00
2018-06-21T01:38:46.838Z,0.00
2018-06-21T01:39:46.848Z,0.00
2018-06-21T01:40:46.828Z,0.00
2018-06-21T01:41:55.792Z,0.00
2018-06-21T01:43:41.178Z,0.00
2018-06-21T01:46:04.415Z,0.00
2018-06-21T01:48:27.363Z,0.00
2018-06-21T01:51:01.356Z,0.00
2018-06-21T01:51:50.435Z,0.00
2018-06-21T01:52:50.205Z,0.00
2018-06-21T01:53:50.246Z,0.00
2018-06-21T01:54:50.207Z,0.00
2018-06-21T01:57:20.893Z,0.00
2018-06-21T01:58:13.608Z,0.00
2018-06-21T02:00:17.695Z,0.00
2018-06-21T02:01:07.680Z,0.00
2018-06-21T02:02:07.492Z,0.00
2018-06-21T02:03:07.481Z,0.00
2018-06-21T02:04:07.450Z,0.00
2018-06-21T02:05:07.551Z,0.00
2018-06-21T02:06:07.445Z,0.00
2018-06-21T02:07:07.441Z,0.00
2018-06-21T02:08:07.466Z,0.00
2018-06-21T02:09:07.370Z,0.00
2018-06-21T02:10:07.364Z,0.00
2018-06-21T02:11:07.360Z,0.00
2018-06-21T02:12:07.335Z,0.00
2018-06-21T02:13:07.340Z,0.00
2018-06-21T02:14:07.312Z,0.00
2018-06-21T02:15:07.302Z,0.00
2018-06-21T02:16:07.283Z,0.00
2018-06-21T02:17:07.263Z,0.00
2018-06-21T02:18:07.236Z,0.00
2018-06-21T02:19:07.222Z,0.00
2018-06-21T02:20:07.198Z,0.00
2018-06-21T02:21:07.199Z,0.00
2018-06-21T02:22:07.184Z,0.00
2018-06-21T02:23:07.134Z,0.00
2018-06-21T02:24:07.136Z,0.00
2018-06-21T02:25:07.121Z,0.00
2018-06-21T02:26:07.099Z,0.00
2018-06-21T02:27:07.064Z,0.00
2018-06-21T02:28:07.065Z,0.00
2018-06-21T02:29:07.059Z,0.00
2018-06-21T02:30:07.038Z,0.00
2018-06-21T02:31:07.019Z,0.00
2018-06-21T02:32:07.020Z,0.00
2018-06-21T02:33:14.654Z,0.00
2018-06-21T02:35:12.517Z,0.00
2018-06-21T02:36:02.612Z,0.00
2018-06-21T02:37:02.301Z,4.00
2018-06-21T02:38:02.287Z,4.00
2018-06-21T02:39:02.252Z,0.00
2018-06-21T02:40:02.237Z,0.00
2018-06-21T02:41:02.245Z,4.00
2018-06-21T02:42:02.213Z,4.00
2018-06-21T02:43:02.181Z,4.00
2018-06-21T02:44:02.184Z,4.00
2018-06-21T02:45:02.144Z,4.00
2018-06-21T02:46:02.140Z,4.00
2018-06-21T02:47:02.215Z,8.00
2018-06-21T02:48:02.105Z,4.00
2018-06-21T02:49:02.092Z,8.00
2018-06-21T02:50:02.127Z,8.00
2018-06-21T02:51:02.082Z,8.00
2018-06-21T02:52:02.071Z,8.00
2018-06-21T02:53:02.025Z,8.00
2018-06-21T02:54:02.036Z,12.00
2018-06-21T02:55:01.997Z,12.00
2018-06-21T02:56:02.024Z,16.00
2018-06-21T02:57:01.973Z,16.00
2018-06-21T02:58:02.020Z,20.00
2018-06-21T02:59:01.941Z,24.00
2018-06-21T03:00:02.009Z,24.00
2018-06-21T03:01:01.910Z,24.00
2018-06-21T03:02:01.934Z,28.00
2018-06-21T03:03:01.892Z,32.00
2018-06-21T03:04:01.911Z,36.00
2018-06-21T03:05:01.833Z,40.00
2018-06-21T03:06:01.798Z,44.00
2018-06-21T03:07:01.825Z,48.00
2018-06-21T03:08:01.774Z,52.00
2018-06-21T03:09:01.765Z,56.00
2018-06-21T03:10:01.886Z,56.00
2018-06-21T03:11:01.778Z,64.00
2018-06-21T03:12:01.700Z,68.00
2018-06-21T03:13:01.711Z,72.00
2018-06-21T03:14:01.701Z,76.00
2018-06-21T03:15:01.767Z,84.00
2018-06-21T03:16:01.665Z,88.00
2018-06-21T03:17:01.632Z,92.00
2018-06-21T03:18:09.304Z,100.00
2018-06-21T03:19:55.985Z,108.00
2018-06-21T03:20:55.944Z,116.00
2018-06-21T03:21:56.038Z,120.00
2018-06-21T03:22:56.004Z,128.00
2018-06-21T03:25:27.642Z,148.00
2018-06-21T03:26:17.908Z,152.00
2018-06-21T03:27:18.039Z,164.00
2018-06-21T03:28:17.912Z,172.00
2018-06-21T03:29:17.877Z,184.00
2018-06-21T03:30:17.866Z,196.00
2018-06-21T03:31:17.824Z,204.00
2018-06-21T03:32:17.819Z,220.00
2018-06-21T03:33:17.791Z,236.00
2018-06-21T03:34:17.764Z,248.00
2018-06-21T03:35:17.890Z,268.00
2018-06-21T03:36:17.802Z,292.00
2018-06-21T03:37:17.794Z,320.00
2018-06-21T03:38:17.751Z,348.00
2018-06-21T03:39:17.724Z,372.00
2018-06-21T03:40:17.668Z,392.00
2018-06-21T03:41:17.691Z,412.00
2018-06-21T03:42:17.678Z,436.00
2018-06-21T03:43:17.634Z,472.00
2018-06-21T03:44:17.608Z,512.00
2018-06-21T03:45:17.664Z,548.00
2018-06-21T03:46:17.548Z,580.00
2018-06-21T03:47:17.610Z,584.00
2018-06-21T03:48:17.571Z,592.00
2018-06-21T03:49:17.547Z,596.00
2018-06-21T03:50:17.503Z,620.00
2018-06-21T03:51:17.534Z,640.00
2018-06-21T03:52:17.549Z,676.00
2018-06-21T03:53:17.455Z,716.00
2018-06-21T03:54:17.433Z,748.00
2018-06-21T03:55:17.520Z,784.00
2018-06-21T03:56:17.407Z,808.00
2018-06-21T03:57:17.380Z,820.00
2018-06-21T03:58:17.420Z,836.00
2018-06-21T03:59:17.371Z,860.00
2018-06-21T04:00:17.358Z,928.00
2018-06-21T04:01:17.398Z,1024.00
2018-06-21T04:02:17.328Z,1040.00
2018-06-21T04:03:17.279Z,1012.00
2018-06-21T04:04:17.338Z,1000.00
2018-06-21T04:05:17.271Z,952.00
2018-06-21T04:06:17.220Z,928.00
2018-06-21T04:07:17.199Z,912.00
2018-06-21T04:08:17.263Z,900.00
2018-06-21T04:09:17.178Z,968.00
2018-06-21T04:10:17.144Z,900.00
2018-06-21T04:11:17.174Z,828.00
2018-06-21T04:12:17.117Z,752.00
2018-06-21T04:14:47.844Z,564.00
2018-06-21T04:15:40.140Z,564.00
2018-06-21T04:17:46.571Z,608.00
2018-06-21T04:18:36.441Z,616.00
2018-06-21T04:21:00.542Z,504.00
2018-06-21T04:21:59.504Z,492.00
2018-06-21T04:22:59.718Z,468.00
2018-06-21T04:23:59.444Z,500.00
2018-06-21T04:24:59.423Z,532.00
2018-06-21T04:27:31.070Z,604.00
2018-06-21T04:28:22.945Z,748.00
2018-06-21T04:30:45.738Z,1216.00
2018-06-21T04:31:45.660Z,1276.00
2018-06-21T04:32:45.639Z,1304.00
2018-06-21T04:33:45.732Z,1416.00
2018-06-21T04:34:45.617Z,1500.00
2018-06-21T04:37:27.661Z,1144.00
2018-06-21T04:38:38.968Z,956.00
2018-06-21T04:41:08.366Z,720.00
2018-06-21T04:42:17.254Z,496.00
2018-06-21T04:44:02.868Z,540.00
2018-06-21T04:46:36.251Z,844.00
2018-06-21T04:49:00.220Z,424.00
2018-06-21T04:51:12.593Z,692.00
2018-06-21T04:52:12.610Z,772.00
2018-06-21T04:53:12.581Z,756.00
2018-06-21T04:54:12.549Z,804.00
2018-06-21T04:56:45.697Z,648.00
2018-06-21T04:57:36.578Z,524.00
2018-06-21T05:00:22.149Z,300.00
2018-06-21T05:01:22.425Z,328.00
2018-06-21T05:02:22.125Z,384.00
2018-06-21T05:04:54.394Z,392.00
2018-06-21T05:05:44.122Z,420.00
2018-06-21T05:08:20.222Z,480.00
2018-06-21T05:10:30.095Z,496.00
2018-06-21T05:11:29.959Z,432.00
2018-06-21T05:14:02.812Z,456.00
2018-06-21T05:16:25.903Z,336.00
2018-06-21T05:18:51.338Z,324.00
2018-06-21T05:19:49.474Z,268.00
2018-06-21T05:21:46.213Z,368.00
2018-06-21T05:22:36.100Z,436.00
2018-06-21T05:23:36.110Z,524.00
2018-06-21T05:24:36.078Z,620.00
2018-06-21T05:25:36.051Z,552.00
2018-06-21T05:26:36.040Z,536.00
2018-06-21T05:27:36.036Z,608.00
2018-06-21T05:28:36.139Z,596.00
2018-06-21T05:29:36.014Z,552.00
2018-06-21T05:30:35.963Z,520.00
2018-06-21T05:32:59.104Z,572.00
2018-06-21T05:33:59.060Z,536.00
2018-06-21T05:36:32.272Z,492.00
2018-06-21T05:38:45.049Z,540.00
2018-06-21T05:39:44.995Z,492.00
2018-06-21T05:42:09.268Z,584.00
2018-06-21T05:43:07.026Z,612.00
2018-06-21T05:44:07.312Z,632.00
2018-06-21T05:45:06.950Z,600.00
2018-06-21T05:46:06.958Z,584.00
2018-06-21T05:47:07.262Z,584.00
2018-06-21T05:48:06.908Z,576.00
2018-06-21T05:49:06.896Z,536.00
2018-06-21T05:50:06.863Z,544.00
2018-06-21T05:51:06.838Z,568.00
2018-06-21T05:52:06.834Z,464.00
2018-06-21T05:53:06.857Z,372.00
2018-06-21T05:54:06.818Z,296.00
2018-06-21T05:55:06.808Z,296.00
2018-06-21T05:56:06.783Z,276.00
2018-06-21T05:57:06.772Z,332.00
2018-06-21T05:58:06.725Z,360.00
2018-06-21T05:59:06.843Z,300.00
2018-06-21T06:00:06.887Z,356.00
2018-06-21T06:01:06.683Z,500.00
2018-06-21T06:02:06.674Z,728.00
2018-06-21T06:03:06.633Z,684.00
2018-06-21T06:04:06.720Z,464.00
2018-06-21T06:05:06.671Z,484.00
2018-06-21T06:06:06.615Z,516.00
2018-06-21T06:07:06.635Z,284.00
2018-06-21T06:08:06.671Z,524.00
2018-06-21T06:09:06.616Z,1080.00
2018-06-21T06:10:06.670Z,1320.00
2018-06-21T06:11:06.605Z,904.00
2018-06-21T06:12:06.559Z,1596.00
2018-06-21T06:13:06.563Z,1472.00
2018-06-21T06:14:06.474Z,1716.00
2018-06-21T06:15:06.432Z,2236.00
2018-06-21T06:16:06.438Z,1856.00
2018-06-21T06:17:06.493Z,1676.00
2018-06-21T06:18:06.618Z,1740.00
2018-06-21T06:19:06.403Z,1676.00
2018-06-21T06:20:06.407Z,1180.00
2018-06-21T06:21:06.356Z,1016.00
2018-06-21T06:22:06.336Z,1056.00
2018-06-21T06:23:06.315Z,888.00
2018-06-21T06:24:06.324Z,856.00
2018-06-21T06:25:06.367Z,716.00
2018-06-21T06:26:06.292Z,424.00
2018-06-21T06:27:06.251Z,604.00
2018-06-21T06:28:06.265Z,700.00
2018-06-21T06:29:06.207Z,836.00
2018-06-21T06:30:06.201Z,812.00
2018-06-21T06:31:06.193Z,968.00
2018-06-21T06:32:06.255Z,868.00
2018-06-21T06:33:06.161Z,732.00
2018-06-21T06:34:06.125Z,716.00
2018-06-21T06:35:06.128Z,860.00
2018-06-21T06:36:06.091Z,1036.00
2018-06-21T06:37:06.085Z,1040.00
2018-06-21T06:38:06.157Z,1228.00
2018-06-21T06:39:06.085Z,1468.00
2018-06-21T06:40:06.025Z,1692.00
2018-06-21T06:41:06.061Z,1624.00
2018-06-21T06:42:06.014Z,1856.00
2018-06-21T06:43:05.993Z,2312.00
2018-06-21T06:44:05.978Z,2172.00
2018-06-21T06:45:05.940Z,1724.00
2018-06-21T06:46:05.969Z,1668.00
2018-06-21T06:47:05.932Z,1620.00
2018-06-21T06:48:05.905Z,1408.00
2018-06-21T06:49:05.963Z,1304.00
2018-06-21T06:50:05.872Z,912.00
2018-06-21T06:51:05.865Z,964.00
2018-06-21T06:52:05.837Z,1124.00
2018-06-21T06:53:05.834Z,876.00
2018-06-21T06:54:05.834Z,860.00
2018-06-21T06:55:05.783Z,692.00
2018-06-21T06:56:05.790Z,452.00
2018-06-21T06:57:05.769Z,568.00
2018-06-21T06:58:05.731Z,728.00
2018-06-21T06:59:05.712Z,1104.00
2018-06-21T07:00:05.728Z,1552.00
2018-06-21T07:01:05.691Z,1600.00
2018-06-21T07:02:05.681Z,1252.00
2018-06-21T07:03:05.666Z,1556.00
2018-06-21T07:04:05.680Z,1940.00
2018-06-21T07:05:05.970Z,2224.00
2018-06-21T07:06:05.650Z,2472.00
2018-06-21T07:07:05.592Z,3456.00
2018-06-21T07:08:05.568Z,3888.00
2018-06-21T07:09:05.542Z,4152.00
2018-06-21T07:10:05.562Z,4816.00
2018-06-21T07:11:05.535Z,5056.00
2018-06-21T07:12:05.501Z,5756.00
2018-06-21T07:13:05.486Z,5680.00
2018-06-21T07:14:05.523Z,4924.00
2018-06-21T07:15:05.489Z,3840.00
2018-06-21T07:16:05.418Z,3824.00
2018-06-21T07:17:05.407Z,4436.00
2018-06-21T07:18:05.433Z,4700.00
2018-06-21T07:19:05.446Z,6096.00
2018-06-21T07:20:05.388Z,6232.00
2018-06-21T07:21:05.417Z,6812.00
2018-06-21T07:22:05.512Z,7372.00
2018-06-21T07:23:05.435Z,7080.00
2018-06-21T07:24:05.510Z,7628.00
2018-06-21T07:25:05.301Z,7080.00
2018-06-21T07:26:05.285Z,6264.00
2018-06-21T07:27:07.136Z,4912.00
2018-06-21T07:28:05.260Z,4960.00
2018-06-21T07:29:05.369Z,5180.00
2018-06-21T07:30:05.293Z,5076.00
2018-06-21T07:31:05.221Z,6192.00
2018-06-21T07:32:05.271Z,6708.00
2018-06-21T07:33:05.215Z,6000.00
2018-06-21T07:34:05.148Z,2600.00
2018-06-21T07:35:05.291Z,3216.00
2018-06-21T07:36:05.107Z,3880.00
2018-06-21T07:37:05.513Z,3556.00
2018-06-21T07:38:05.097Z,2708.00
2018-06-21T07:39:05.097Z,3180.00
2018-06-21T07:40:05.068Z,3264.00
2018-06-21T07:41:05.083Z,3708.00
2018-06-21T07:42:05.287Z,4708.00
2018-06-21T07:43:05.116Z,4592.00
2018-06-21T07:45:35.755Z,6288.00
2018-06-21T07:46:28.164Z,6400.00
2018-06-21T07:48:21.509Z,7696.00
2018-06-21T07:49:21.409Z,7680.00
2018-06-21T07:51:15.857Z,7464.00
2018-06-21T07:52:15.750Z,7536.00
2018-06-21T07:53:15.740Z,7472.00
2018-06-21T07:54:15.781Z,7328.00
2018-06-21T07:55:15.709Z,7744.00
2018-06-21T07:56:15.693Z,8104.00
2018-06-21T07:57:15.776Z,8204.00
2018-06-21T07:58:15.682Z,7944.00
2018-06-21T07:59:15.653Z,7564.00
2018-06-21T08:01:48.854Z,6900.00
2018-06-21T08:02:38.671Z,6828.00
2018-06-21T08:03:38.658Z,6944.00
2018-06-21T08:06:11.473Z,6832.00
2018-06-21T08:07:01.692Z,6472.00
2018-06-21T08:08:01.678Z,6036.00
2018-06-21T08:09:01.741Z,5580.00
2018-06-21T08:10:01.787Z,5368.00
2018-06-21T08:11:01.625Z,5304.00
2018-06-21T08:12:01.600Z,5060.00
2018-06-21T08:13:01.599Z,4756.00
2018-06-21T08:14:01.594Z,4412.00
2018-06-21T08:15:01.557Z,3940.00
2018-06-21T08:16:01.554Z,3564.00
2018-06-21T08:17:01.533Z,3352.00
2018-06-21T08:19:34.802Z,3320.00
2018-06-21T08:20:33.234Z,3268.00
2018-06-21T08:22:18.992Z,4184.00
2018-06-21T08:24:42.112Z,6680.00
2018-06-21T08:27:15.245Z,9084.00
2018-06-21T08:29:38.111Z,8596.00
2018-06-21T08:30:28.343Z,6316.00
2018-06-21T08:31:28.034Z,4188.00
2018-06-21T08:34:02.370Z,6148.00
2018-06-21T08:36:21.820Z,8340.00
2018-06-21T08:37:14.065Z,11588.00
2018-06-21T08:39:18.491Z,7704.00
2018-06-21T08:40:08.556Z,5836.00
2018-06-21T08:41:08.921Z,5040.00
2018-06-21T08:43:40.276Z,4828.00
2018-06-21T08:44:41.004Z,3576.00
2018-06-21T08:46:36.980Z,6804.00
2018-06-21T08:48:59.061Z,7104.00
2018-06-21T08:51:22.151Z,6984.00
2018-06-21T08:52:12.197Z,5532.00
2018-06-21T08:54:44.485Z,8344.00
2018-06-21T08:55:43.367Z,6320.00
2018-06-21T08:57:38.497Z,5776.00
2018-06-21T08:58:28.420Z,6192.00
2018-06-21T08:59:28.508Z,7856.00
2018-06-21T09:01:51.683Z,8632.00
2018-06-21T09:02:51.423Z,10780.00
2018-06-21T09:03:51.484Z,9700.00
2018-06-21T09:04:52.376Z,9100.00
2018-06-21T09:07:24.908Z,6816.00
2018-06-21T09:09:50.039Z,4740.00
2018-06-21T09:12:01.996Z,8676.00
2018-06-21T09:14:24.986Z,7708.00
2018-06-21T09:16:57.886Z,7424.00
2018-06-21T09:17:47.097Z,7368.00
2018-06-21T09:18:57.883Z,6424.00
2018-06-21T09:20:41.452Z,6316.00
2018-06-21T09:21:50.469Z,3384.00
